createdAt,value
2022-12-08T00:02:03.537Z,4.94
2022-12-08T00:04:52.471Z,4.93
2022-12-08T00:07:39.936Z,4.93
2022-12-08T00:10:39.880Z,4.95
2022-12-08T00:12:57.648Z,4.97
2022-12-08T00:15:26.301Z,5.00
2022-12-08T00:17:54.814Z,5.01
2022-12-08T00:20:23.454Z,4.98
2022-12-08T00:22:51.990Z,4.94
2022-12-08T00:25:20.361Z,4.93
2022-12-08T00:27:48.741Z,4.94
2022-12-08T00:30:17.597Z,4.97
2022-12-08T00:32:45.909Z,4.99
2022-12-08T00:35:14.391Z,5.02
2022-12-08T00:37:43.694Z,5.04
2022-12-08T00:40:12.117Z,5.06
2022-12-08T00:42:40.348Z,5.08
2022-12-08T00:45:09.342Z,5.11
2022-12-08T00:47:37.825Z,5.14
2022-12-08T00:50:07.406Z,5.17
2022-12-08T00:52:36.426Z,5.21
2022-12-08T00:55:05.010Z,5.22
2022-12-08T00:57:33.352Z,5.26
2022-12-08T01:00:02.727Z,5.30
2022-12-08T01:02:33.630Z,5.33
2022-12-08T01:05:01.907Z,5.36
2022-12-08T01:07:31.003Z,5.38
2022-12-08T01:09:59.421Z,5.38
2022-12-08T01:12:29.656Z,5.37
2022-12-08T01:15:02.319Z,5.34
2022-12-08T01:17:31.286Z,5.33
2022-12-08T01:20:00.282Z,5.34
2022-12-08T01:22:28.551Z,5.36
2022-12-08T01:24:57.034Z,5.39
2022-12-08T01:27:25.926Z,5.41
2022-12-08T01:29:54.252Z,5.42
2022-12-08T01:32:22.682Z,5.41
2022-12-08T01:34:51.686Z,5.41
2022-12-08T01:37:20.060Z,5.42
2022-12-08T01:39:48.539Z,5.44
2022-12-08T01:42:22.151Z,5.47
2022-12-08T01:44:53.515Z,5.48
2022-12-08T01:47:23.677Z,5.49
2022-12-08T01:49:52.127Z,5.50
2022-12-08T01:52:33.987Z,5.51
2022-12-08T01:55:04.841Z,5.52
2022-12-08T01:57:45.592Z,5.51
2022-12-08T02:00:16.036Z,5.51
2022-12-08T02:02:48.342Z,5.51
2022-12-08T02:05:18.108Z,5.52
2022-12-08T02:07:47.852Z,5.52
2022-12-08T02:10:20.291Z,5.52
2022-12-08T02:12:50.671Z,5.53
2022-12-08T02:15:19.507Z,5.53
2022-12-08T02:18:02.251Z,5.51
2022-12-08T02:20:36.031Z,5.50
2022-12-08T02:23:27.655Z,5.51
2022-12-08T02:25:56.138Z,5.47
2022-12-08T02:28:38.812Z,5.44
2022-12-08T02:31:33.752Z,5.45
2022-12-08T02:34:17.595Z,5.47
2022-12-08T02:36:57.650Z,5.48
2022-12-08T02:39:26.233Z,5.49
2022-12-08T02:41:54.715Z,5.50
2022-12-08T02:44:39.864Z,5.52
2022-12-08T02:47:17.073Z,5.55
2022-12-08T02:49:45.828Z,5.57
2022-12-08T02:52:14.241Z,5.58
2022-12-08T02:54:46.441Z,5.57
2022-12-08T02:57:26.376Z,5.55
2022-12-08T03:00:16.167Z,5.56
2022-12-08T03:02:47.727Z,5.59
2022-12-08T03:05:16.485Z,5.61
2022-12-08T03:08:01.172Z,5.62
2022-12-08T03:10:34.801Z,5.63
2022-12-08T03:13:06.614Z,5.64
2022-12-08T03:15:37.025Z,5.65
2022-12-08T03:18:07.978Z,5.68
2022-12-08T03:20:38.462Z,5.71
2022-12-08T03:23:09.035Z,5.73
2022-12-08T03:25:41.412Z,5.74
2022-12-08T03:28:10.096Z,5.75
2022-12-08T03:30:40.422Z,5.78
2022-12-08T03:33:30.919Z,5.79
2022-12-08T03:36:00.325Z,5.76
2022-12-08T03:38:37.098Z,5.71
2022-12-08T03:41:20.916Z,5.67
2022-12-08T03:43:53.417Z,5.68
2022-12-08T03:48:50.728Z,5.64
2022-12-08T03:51:19.849Z,5.62
2022-12-08T03:53:48.882Z,5.56
2022-12-08T03:56:22.379Z,5.53
2022-12-08T03:58:51.068Z,5.54
2022-12-08T04:01:19.388Z,5.53
2022-12-08T04:03:47.787Z,5.49
2022-12-08T04:06:16.767Z,5.44
2022-12-08T04:08:45.227Z,5.41
2022-12-08T04:11:14.192Z,5.41
2022-12-08T04:13:43.300Z,5.42
2022-12-08T04:16:19.446Z,5.44
2022-12-08T04:18:48.098Z,5.44
2022-12-08T04:21:16.519Z,5.40
2022-12-08T04:23:45.409Z,5.37
2022-12-08T04:26:14.559Z,5.31
2022-12-08T04:28:43.295Z,5.25
2022-12-08T04:31:11.996Z,5.19
2022-12-08T04:33:40.565Z,5.12
2022-12-08T04:36:09.249Z,5.09
2022-12-08T04:38:37.732Z,5.06
2022-12-08T04:41:06.520Z,5.05
2022-12-08T04:43:35.514Z,5.03
2022-12-08T04:46:06.862Z,5.02
2022-12-08T04:48:36.732Z,4.98
2022-12-08T04:51:05.361Z,4.97
2022-12-08T04:53:33.847Z,5.02
2022-12-08T04:56:02.534Z,5.07
2022-12-08T04:58:31.016Z,5.12
2022-12-08T05:00:59.521Z,5.18
2022-12-08T05:03:28.872Z,5.23
2022-12-08T05:05:59.229Z,5.26
2022-12-08T05:08:28.074Z,5.30
2022-12-08T05:11:07.861Z,5.33
2022-12-08T05:13:36.453Z,5.31
2022-12-08T05:16:09.398Z,5.27
2022-12-08T05:18:38.496Z,5.22
2022-12-08T05:21:07.216Z,5.19
2022-12-08T05:23:35.901Z,5.16
2022-12-08T05:26:04.360Z,5.20
2022-12-08T05:28:42.311Z,5.23
2022-12-08T05:31:13.094Z,5.27
2022-12-08T05:33:41.717Z,5.29
2022-12-08T05:36:11.828Z,5.32
2022-12-08T05:38:40.481Z,5.33
2022-12-08T05:41:09.509Z,5.32
2022-12-08T05:43:37.785Z,5.32
2022-12-08T05:46:07.295Z,5.34
2022-12-08T05:48:36.387Z,5.37
2022-12-08T05:51:05.278Z,5.38
2022-12-08T05:53:34.069Z,5.38
2022-12-08T05:56:02.652Z,5.39
2022-12-08T05:58:31.033Z,5.41
2022-12-08T06:00:59.719Z,5.44
2022-12-08T06:03:29.667Z,5.43
2022-12-08T06:05:58.119Z,5.46
2022-12-08T06:08:26.771Z,5.49
2022-12-08T06:10:55.595Z,5.52
2022-12-08T06:13:23.972Z,5.54
2022-12-08T06:15:52.554Z,5.55
2022-12-08T06:18:21.144Z,5.57
2022-12-08T06:20:49.724Z,5.59
2022-12-08T06:23:17.999Z,5.61
2022-12-08T06:25:46.481Z,5.61
2022-12-08T06:28:14.928Z,5.62
2022-12-08T06:30:43.445Z,5.60
2022-12-08T06:33:11.927Z,5.59
2022-12-08T06:35:40.511Z,5.59
2022-12-08T06:38:09.300Z,5.61
2022-12-08T06:40:37.681Z,5.65
2022-12-08T06:43:05.879Z,5.64
2022-12-08T06:45:34.528Z,5.65
2022-12-08T06:48:03.022Z,5.66
2022-12-08T06:50:32.939Z,5.64
2022-12-08T06:53:05.544Z,5.55
2022-12-08T06:55:57.736Z,5.48
2022-12-08T06:58:23.164Z,5.45
2022-12-08T07:00:51.715Z,5.46
2022-12-08T07:03:20.015Z,5.46
2022-12-08T07:05:48.816Z,5.46
2022-12-08T07:08:17.574Z,5.48
2022-12-08T07:10:45.935Z,5.49
2022-12-08T07:13:14.880Z,5.51
2022-12-08T07:15:43.151Z,5.52
2022-12-08T07:18:11.432Z,5.50
2022-12-08T07:20:40.798Z,5.50
2022-12-08T07:23:09.009Z,5.52
2022-12-08T07:25:37.592Z,5.55
2022-12-08T07:28:09.843Z,5.60
2022-12-08T07:30:38.992Z,5.64
2022-12-08T07:33:07.545Z,5.65
2022-12-08T07:35:36.334Z,5.64
2022-12-08T07:38:04.508Z,5.65
2022-12-08T07:40:34.219Z,5.66
2022-12-08T07:43:02.651Z,5.70
2022-12-08T07:45:31.832Z,5.73
2022-12-08T07:48:00.589Z,5.71
2022-12-08T07:50:29.169Z,5.69
2022-12-08T07:52:57.651Z,5.70
2022-12-08T07:55:26.235Z,5.70
2022-12-08T07:57:54.818Z,5.71
2022-12-08T08:00:23.387Z,5.75
2022-12-08T08:02:52.129Z,5.79
2022-12-08T08:05:21.184Z,5.82
2022-12-08T08:07:49.627Z,5.86
2022-12-08T08:10:18.468Z,5.90
2022-12-08T08:12:47.964Z,5.94
2022-12-08T08:15:18.007Z,6.01
2022-12-08T08:17:49.485Z,6.06
2022-12-08T08:20:18.120Z,6.11
2022-12-08T08:22:50.901Z,6.13
2022-12-08T08:25:22.556Z,6.18
2022-12-08T08:27:51.039Z,6.26
2022-12-08T08:30:20.909Z,6.34
2022-12-08T08:32:50.152Z,6.38
2022-12-08T08:35:18.739Z,6.40
2022-12-08T08:37:49.207Z,6.44
2022-12-08T08:40:18.367Z,6.47
2022-12-08T08:42:46.749Z,6.51
2022-12-08T08:45:15.408Z,6.55
2022-12-08T08:47:44.116Z,6.61
2022-12-08T08:50:12.394Z,6.67
2022-12-08T08:52:41.186Z,6.71
2022-12-08T08:55:10.087Z,6.80
2022-12-08T08:57:38.454Z,6.93
2022-12-08T09:00:08.150Z,7.02
2022-12-08T09:02:37.569Z,7.07
2022-12-08T09:05:06.850Z,7.20
2022-12-08T09:07:35.661Z,7.29
2022-12-08T09:10:04.756Z,7.37
2022-12-08T09:12:33.252Z,7.42
2022-12-08T09:15:01.721Z,7.46
2022-12-08T09:17:30.611Z,7.51
2022-12-08T09:19:59.604Z,7.55
2022-12-08T09:22:27.881Z,7.57
2022-12-08T09:24:56.978Z,7.55
2022-12-08T09:27:25.810Z,7.47
2022-12-08T09:29:54.145Z,7.38
2022-12-08T09:32:22.580Z,7.29
2022-12-08T09:34:52.396Z,7.19
2022-12-08T09:37:20.821Z,7.14
2022-12-08T09:39:49.309Z,7.11
2022-12-08T09:42:24.993Z,7.07
2022-12-08T09:44:55.688Z,7.06
2022-12-08T09:47:24.272Z,7.04
2022-12-08T09:50:01.712Z,7.01
2022-12-08T09:52:34.045Z,6.97
2022-12-08T09:55:04.772Z,6.92
2022-12-08T09:57:33.338Z,6.94
2022-12-08T10:00:05.431Z,6.96
2022-12-08T10:02:34.724Z,7.01
2022-12-08T10:05:03.157Z,7.07
2022-12-08T10:07:34.869Z,7.12
2022-12-08T10:10:04.027Z,7.18
2022-12-08T10:12:51.793Z,7.22
2022-12-08T10:15:32.464Z,7.24
2022-12-08T10:18:02.375Z,7.21
2022-12-08T10:20:37.720Z,7.20
2022-12-08T10:23:06.304Z,7.27
2022-12-08T10:25:41.645Z,7.32
2022-12-08T10:28:10.743Z,7.38
2022-12-08T10:30:39.172Z,7.42
2022-12-08T10:33:14.159Z,7.44
2022-12-08T10:35:47.337Z,7.42
2022-12-08T10:38:38.873Z,7.38
2022-12-08T10:41:12.885Z,7.39
2022-12-08T10:43:46.560Z,7.41
2022-12-08T10:46:16.845Z,7.44
2022-12-08T10:49:08.643Z,7.47
2022-12-08T10:51:38.864Z,7.52
2022-12-08T10:54:30.488Z,7.58
2022-12-08T10:56:59.176Z,7.63
2022-12-08T10:59:27.578Z,7.61
2022-12-08T11:01:57.179Z,7.52
2022-12-08T11:04:36.716Z,7.40
2022-12-08T11:07:05.904Z,7.31
2022-12-08T11:09:48.922Z,7.26
2022-12-08T11:12:18.125Z,7.24
2022-12-08T11:14:51.522Z,7.17
2022-12-08T11:17:22.734Z,7.10
2022-12-08T11:19:57.396Z,6.99
2022-12-08T11:22:38.267Z,6.90
2022-12-08T11:25:18.323Z,6.83
2022-12-08T11:27:50.977Z,6.84
2022-12-08T11:30:28.125Z,6.91
2022-12-08T11:33:20.017Z,7.01
2022-12-08T11:35:51.877Z,7.10
2022-12-08T11:38:22.893Z,7.19
2022-12-08T11:41:00.518Z,7.27
2022-12-08T11:43:35.007Z,7.31
2022-12-08T11:46:05.429Z,7.35
2022-12-08T11:48:39.958Z,7.34
2022-12-08T11:51:18.814Z,7.34
2022-12-08T11:53:47.297Z,7.35
2022-12-08T11:56:35.234Z,7.35
2022-12-08T11:59:11.293Z,7.36
2022-12-08T12:01:42.640Z,7.37
2022-12-08T12:04:20.956Z,7.40
2022-12-08T12:07:05.105Z,7.42
2022-12-08T12:09:33.589Z,7.42
2022-12-08T12:12:20.911Z,7.43
2022-12-08T12:15:07.926Z,7.45
2022-12-08T12:17:51.666Z,7.46
2022-12-08T12:20:20.250Z,7.49
2022-12-08T12:22:52.113Z,7.48
2022-12-08T12:25:22.355Z,7.47
2022-12-08T12:27:57.231Z,7.45
2022-12-08T12:30:27.886Z,7.44
2022-12-08T12:33:00.582Z,7.44
2022-12-08T12:35:32.032Z,7.45
2022-12-08T12:38:03.177Z,7.42
2022-12-08T12:40:36.983Z,7.39
2022-12-08T12:43:06.192Z,7.35
2022-12-08T12:45:34.979Z,7.36
2022-12-08T12:48:03.555Z,7.40
2022-12-08T12:50:34.862Z,7.43
2022-12-08T12:53:19.469Z,7.38
2022-12-08T12:55:57.475Z,7.37
2022-12-08T12:58:29.950Z,7.38
2022-12-08T13:01:14.168Z,7.39
2022-12-08T13:03:46.034Z,7.36
2022-12-08T13:06:15.576Z,7.29
2022-12-08T13:08:55.592Z,7.24
2022-12-08T13:11:24.599Z,7.24
2022-12-08T13:14:06.635Z,7.24
2022-12-08T13:16:37.822Z,7.25
2022-12-08T13:19:13.069Z,7.20
2022-12-08T13:21:41.744Z,7.12
2022-12-08T13:24:10.482Z,7.07
2022-12-08T13:26:48.276Z,7.00
2022-12-08T13:29:16.957Z,6.95
2022-12-08T13:32:04.151Z,6.87
2022-12-08T13:34:45.674Z,6.72
2022-12-08T13:37:21.219Z,6.70
2022-12-08T13:40:02.507Z,6.69
2022-12-08T13:42:31.186Z,6.66
2022-12-08T13:45:24.204Z,6.65
2022-12-08T13:48:20.854Z,6.63
2022-12-08T13:54:45.455Z,6.56
2022-12-08T13:59:21.644Z,6.54
2022-12-08T14:01:50.543Z,6.58
2022-12-08T14:07:10.372Z,6.58
2022-12-08T14:09:39.568Z,6.58
2022-12-08T14:12:28.427Z,6.57
2022-12-08T14:15:04.230Z,6.61
2022-12-08T14:17:33.895Z,6.62
2022-12-08T14:20:18.451Z,6.59
2022-12-08T14:22:47.342Z,6.54
2022-12-08T14:25:16.678Z,6.52
2022-12-08T14:27:45.532Z,6.50
2022-12-08T14:30:17.293Z,6.48
2022-12-08T14:32:48.949Z,6.46
2022-12-08T14:35:30.008Z,6.44
2022-12-08T14:38:00.496Z,6.37
2022-12-08T14:40:40.101Z,6.31
2022-12-08T14:43:09.007Z,6.20
2022-12-08T14:45:43.387Z,6.12
2022-12-08T14:48:28.080Z,6.06
2022-12-08T14:51:05.668Z,5.94
2022-12-08T14:53:40.154Z,5.87
2022-12-08T14:56:17.175Z,5.85
2022-12-08T14:58:46.350Z,5.83
2022-12-08T15:01:17.464Z,5.79
2022-12-08T15:03:51.186Z,5.70
2022-12-08T15:06:22.665Z,5.62
2022-12-08T15:08:52.721Z,5.56
2022-12-08T15:11:21.069Z,5.56
2022-12-08T15:13:51.087Z,5.52
2022-12-08T15:16:25.316Z,5.48
2022-12-08T15:19:02.497Z,5.45
2022-12-08T15:21:32.815Z,5.45
2022-12-08T15:24:01.402Z,5.47
2022-12-08T15:26:40.633Z,5.47
2022-12-08T15:29:13.622Z,5.48
2022-12-08T15:31:42.260Z,5.48
2022-12-08T15:34:10.994Z,5.50
2022-12-08T15:36:40.298Z,5.53
2022-12-08T15:39:29.360Z,5.56
2022-12-08T15:41:58.020Z,5.57
2022-12-08T15:44:26.528Z,5.58
2022-12-08T15:46:55.475Z,5.61
2022-12-08T15:49:24.546Z,5.63
2022-12-08T15:52:00.602Z,5.67
2022-12-08T15:54:36.869Z,5.69
2022-12-08T15:57:20.239Z,5.72
2022-12-08T15:59:54.248Z,5.74
2022-12-08T16:02:24.970Z,5.74
2022-12-08T16:05:40.186Z,5.77
2022-12-08T16:07:42.930Z,5.78
2022-12-08T16:10:17.421Z,5.78
2022-12-08T16:16:00.467Z,5.76
2022-12-08T16:18:34.664Z,5.76
2022-12-08T16:23:52.201Z,5.79
2022-12-08T16:27:13.922Z,5.80
2022-12-08T16:29:16.724Z,5.81
2022-12-08T16:31:45.423Z,5.83
2022-12-08T16:34:13.983Z,5.85
2022-12-08T16:36:42.363Z,5.88
2022-12-08T16:39:12.910Z,5.88
2022-12-08T16:42:00.116Z,5.83
2022-12-08T16:44:28.801Z,5.77
2022-12-08T16:46:57.488Z,5.74
2022-12-08T16:49:25.763Z,5.71
2022-12-08T16:51:54.451Z,5.73
2022-12-08T16:54:23.239Z,5.73
2022-12-08T16:56:51.823Z,5.73
2022-12-08T16:59:20.203Z,5.71
2022-12-08T17:01:48.889Z,5.68
2022-12-08T17:04:32.709Z,5.64
2022-12-08T17:07:01.832Z,5.60
2022-12-08T17:09:31.435Z,5.60
2022-12-08T17:12:03.785Z,5.61
2022-12-08T17:14:34.957Z,5.63
2022-12-08T17:17:03.662Z,5.66
2022-12-08T17:19:32.531Z,5.70
2022-12-08T17:22:02.725Z,5.73
2022-12-08T17:24:31.348Z,5.77
2022-12-08T17:27:04.521Z,5.82
2022-12-08T17:29:34.461Z,5.85
2022-12-08T17:32:02.895Z,5.86
2022-12-08T17:34:31.717Z,5.86
2022-12-08T17:37:00.506Z,5.83
2022-12-08T17:39:28.782Z,5.83
2022-12-08T17:41:57.470Z,5.86
2022-12-08T17:44:26.260Z,5.86
2022-12-08T17:46:54.535Z,5.85
2022-12-08T17:49:25.064Z,5.86
2022-12-08T17:51:55.507Z,5.87
2022-12-08T17:54:24.691Z,5.90
2022-12-08T17:56:53.583Z,5.92
2022-12-08T17:59:22.371Z,5.92
2022-12-08T18:01:52.604Z,5.95
2022-12-08T18:04:21.634Z,5.97
2022-12-08T18:06:50.143Z,5.99
2022-12-08T18:09:18.813Z,6.00
2022-12-08T18:11:47.451Z,6.03
2022-12-08T18:14:16.687Z,6.05
2022-12-08T18:16:46.904Z,6.07
2022-12-08T18:19:15.757Z,6.07
2022-12-08T18:21:44.344Z,6.08
2022-12-08T18:24:17.944Z,6.05
2022-12-08T18:26:47.212Z,6.01
2022-12-08T18:29:15.622Z,6.01
2022-12-08T18:31:44.003Z,6.02
2022-12-08T18:34:12.689Z,6.02
2022-12-08T18:36:41.683Z,6.03
2022-12-08T18:39:19.996Z,6.03
2022-12-08T18:41:48.784Z,5.96
2022-12-08T18:44:17.472Z,5.86
2022-12-08T18:46:46.057Z,5.80
2022-12-08T18:49:16.446Z,5.77
2022-12-08T18:51:45.170Z,5.72
2022-12-08T18:54:13.855Z,5.70
2022-12-08T18:56:42.545Z,5.68
2022-12-08T18:59:11.844Z,5.65
2022-12-08T19:01:40.349Z,5.67
2022-12-08T19:06:58.703Z,5.66
2022-12-08T19:09:27.276Z,5.67
2022-12-08T19:11:56.578Z,5.68
2022-12-08T19:14:28.159Z,5.70
2022-12-08T19:16:57.984Z,5.71
2022-12-08T19:19:27.354Z,5.73
2022-12-08T19:21:56.137Z,5.72
2022-12-08T19:24:25.062Z,5.71
2022-12-08T19:26:53.827Z,5.68
2022-12-08T19:29:22.034Z,5.65
2022-12-08T19:31:50.644Z,5.64
2022-12-08T19:34:19.197Z,5.64
2022-12-08T19:36:47.895Z,5.64
2022-12-08T19:39:36.249Z,5.64
2022-12-08T19:42:33.181Z,5.65
2022-12-08T19:45:04.196Z,5.66
2022-12-08T19:47:32.921Z,5.64
2022-12-08T19:50:20.296Z,5.62
2022-12-08T19:52:49.000Z,5.63
2022-12-08T19:55:17.414Z,5.63
2022-12-08T19:57:45.945Z,5.63
2022-12-08T20:00:14.654Z,5.62
2022-12-08T20:02:43.125Z,5.61
2022-12-08T20:05:12.543Z,5.60
2022-12-08T20:07:41.623Z,5.61
2022-12-08T20:10:14.697Z,5.62
2022-12-08T20:12:43.340Z,5.65
2022-12-08T20:15:12.215Z,5.68
2022-12-08T20:17:41.413Z,5.70
2022-12-08T20:20:10.658Z,5.73
2022-12-08T20:22:39.164Z,5.77
2022-12-08T20:25:07.836Z,5.80
2022-12-08T20:27:36.435Z,5.83
2022-12-08T20:30:05.323Z,5.84
2022-12-08T20:32:33.615Z,5.83
2022-12-08T20:35:02.471Z,5.82
2022-12-08T20:37:31.484Z,5.80
2022-12-08T20:39:59.969Z,5.79
2022-12-08T20:42:28.550Z,5.78
2022-12-08T20:44:57.246Z,5.77
2022-12-08T20:47:25.788Z,5.78
2022-12-08T20:49:54.525Z,5.79
2022-12-08T20:52:23.091Z,5.80
2022-12-08T20:54:51.687Z,5.80
2022-12-08T20:57:20.473Z,5.82
2022-12-08T20:59:49.207Z,5.83
2022-12-08T21:02:18.055Z,5.83
2022-12-08T21:04:46.978Z,5.84
2022-12-08T21:07:15.789Z,5.84
2022-12-08T21:09:44.534Z,5.84
2022-12-08T21:12:13.625Z,5.83
2022-12-08T21:14:42.139Z,5.84
2022-12-08T21:17:10.656Z,5.85
2022-12-08T21:19:39.680Z,5.87
2022-12-08T21:22:08.507Z,5.88
2022-12-08T21:24:37.880Z,5.91
2022-12-08T21:27:06.445Z,5.91
2022-12-08T21:29:35.260Z,5.92
2022-12-08T21:32:03.858Z,5.94
2022-12-08T21:34:34.397Z,5.95
2022-12-08T21:37:03.130Z,5.98
2022-12-08T21:39:31.824Z,5.99
2022-12-08T21:42:22.601Z,6.02
2022-12-08T21:44:51.546Z,6.06
2022-12-08T21:47:20.194Z,6.09
2022-12-08T21:49:48.688Z,6.11
2022-12-08T21:52:17.535Z,6.12
2022-12-08T21:54:46.421Z,6.12
2022-12-08T21:57:14.773Z,6.12
2022-12-08T21:59:43.808Z,6.14
2022-12-08T22:02:15.573Z,6.16
2022-12-08T22:04:48.444Z,6.17
2022-12-08T22:07:17.396Z,6.18
2022-12-08T22:09:45.877Z,6.20
2022-12-08T22:12:16.941Z,6.21
2022-12-08T22:14:45.722Z,6.19
2022-12-08T22:17:14.331Z,6.15
2022-12-08T22:19:43.693Z,6.10
2022-12-08T22:22:12.474Z,6.02
2022-12-08T22:24:40.910Z,5.94
2022-12-08T22:27:09.697Z,5.89
2022-12-08T22:29:38.017Z,5.83
2022-12-08T22:32:06.499Z,5.79
2022-12-08T22:34:35.597Z,5.75
2022-12-08T22:37:04.202Z,5.71
2022-12-08T22:39:32.758Z,5.66
2022-12-08T22:42:01.279Z,5.63
2022-12-08T22:44:30.324Z,5.62
2022-12-08T22:46:58.776Z,5.60
2022-12-08T22:49:27.717Z,5.62
2022-12-08T22:51:56.341Z,5.61
2022-12-08T22:54:24.837Z,5.61
2022-12-08T22:56:53.170Z,5.63
2022-12-08T22:59:21.941Z,5.67
2022-12-08T23:01:50.419Z,5.70
2022-12-08T23:04:19.001Z,5.74
2022-12-08T23:06:48.222Z,5.78
2022-12-08T23:09:16.762Z,5.80
2022-12-08T23:11:45.460Z,5.80
2022-12-08T23:14:13.971Z,5.82
2022-12-08T23:16:42.494Z,5.84
2022-12-08T23:19:11.456Z,5.86
2022-12-08T23:21:40.226Z,5.89
2022-12-08T23:24:08.727Z,5.90
2022-12-08T23:26:37.689Z,5.93
2022-12-08T23:29:06.241Z,5.95
2022-12-08T23:31:35.004Z,5.94
2022-12-08T23:34:03.998Z,5.97
2022-12-08T23:36:32.541Z,5.97
2022-12-08T23:39:01.040Z,5.96
2022-12-08T23:41:30.698Z,5.95
2022-12-08T23:43:59.390Z,5.98
2022-12-08T23:46:28.187Z,6.03
2022-12-08T23:48:57.151Z,6.05
2022-12-08T23:51:25.665Z,6.06
2022-12-08T23:53:54.706Z,6.07
2022-12-08T23:56:28.320Z,6.09
2022-12-08T23:59:00.535Z,6.04
